Time;durP1;ratioP1;P1;durP2;ratioP2;P2;SDS_P1;SDS_P2;PMS_P1;PMS_P2;Temp;Humidity;BMP_temperature;BMP_pressure;BME280_temperature;BME280_humidity;BME280_pressure;Samples;Min_cycle;Max_cycle;Signal;HPM_P1;HPM_P2
2023/10/15 00:01:42;;;;;;;;;;;;;;;;;;4953152;29;19923;-76
2023/10/15 00:04:08;;;;;;;;;;;;;;;;;;4953695;29;19926;-77
2023/10/15 00:06:34;;;;;;;;;;;;;;;;;;4952805;29;19973;-78
2023/10/15 00:09:01;;;;;;;;;;;;;;;;;;4953189;29;19965;-76
2023/10/15 00:11:27;;;;;;;;;;;;;;;;;;4953268;29;20271;-77
2023/10/15 00:13:53;;;;;;;;;;;;;;;;;;4953285;29;19922;-76
2023/10/15 00:16:19;;;;;;;;;;;;;;;;;;4953527;29;19922;-76
2023/10/15 00:18:45;;;;;;;;;;;;;;;;;;4953093;29;19922;-76
2023/10/15 00:21:14;;;;;;;;;;;;;;;;;;4953471;29;20254;-77
2023/10/15 00:23:41;;;;;;;;;;;;;;;;;;4952347;28;19926;-77
2023/10/15 00:26:07;;;;;;;;;;;;;;;;;;4952955;29;19923;-76
2023/10/15 00:28:33;;;;;;;;;;;;;;;;;;4953253;29;19933;-77
2023/10/15 00:31:09;;;;;;;;;;;;;;;;;;4953214;29;19923;-76
2023/10/15 00:33:35;;;;;;;;;;;;;;;;;;4953125;29;19922;-77
2023/10/15 00:36:04;;;;;;;;;;;;;;;;;;4953564;28;20332;-76
2023/10/15 00:38:30;;;;;;;;;;;;;;;;;;4955714;28;19922;-76
2023/10/15 00:41:00;;;;;;;;;;;;;;;;;;4955534;28;19944;-77
2023/10/15 00:43:26;;;;;;;;;;;;;;;;;;4956459;28;19969;-77
2023/10/15 00:45:52;;;;;;;;;;;;;;;;;;4956038;28;19922;-77
2023/10/15 00:48:27;;;;;;;;;;;;;;;;;;4955946;28;19926;-77
2023/10/15 00:50:53;;;;;;;;;;;;;;;;;;4955764;28;20363;-77
2023/10/15 00:53:23;;;;;;;;;;;;;;;;;;4955075;28;19933;-77
2023/10/15 00:55:49;;;;;;;;;;;;;;;;;;4955377;28;19926;-77
2023/10/15 00:58:21;;;;;;;;;;;;;;;;;;4956676;28;19926;-77
2023/10/15 01:03:17;;;;;;;;;;;;;;;;;;4955906;28;19972;-77
2023/10/15 01:05:53;;;;;;;;;;;;;;;;;;4955802;28;19929;-78
2023/10/15 01:08:24;;;;;;;;;;;;;;;;;;4955073;28;19926;-77
2023/10/15 01:10:53;;;;;;;;;;;;;;;;;;4955442;28;19929;-77
2023/10/15 01:13:21;;;;;;;;;;;;;;;;;;4956165;28;19922;-76
2023/10/15 01:15:54;;;;;;;;;;;;;;;;;;4955873;28;19929;-77
2023/10/15 01:18:20;;;;;;;;;;;;;;;;;;4955881;28;20017;-77
2023/10/15 01:20:46;;;;;;;;;;;;;;;;;;4955723;28;20009;-77
2023/10/15 01:26:00;;;;;;;;;;;;;;;;;;4955030;28;20382;-77
2023/10/15 01:28:39;;;;;;;;;;;;;;;;;;4955920;28;20382;-77
2023/10/15 01:31:08;;;;;;;;;;;;;;;;;;4955659;28;20036;-77
2023/10/15 01:33:46;;;;;;;;;;;;;;;;;;4956059;28;19922;-76
2023/10/15 01:36:16;;;;;;;;;;;;;;;;;;4955946;28;20424;-77
2023/10/15 01:38:44;;;;;;;;;;;;;;;;;;4958949;28;19929;-76
2023/10/15 01:41:13;;;;;;;;;;;;;;;;;;4958673;28;19976;-77
2023/10/15 01:43:39;;;;;;;;;;;;;;;;;;4959735;28;19922;-76
2023/10/15 01:46:10;;;;;;;;;;;;;;;;;;4958877;28;20567;-76
2023/10/15 01:48:39;;;;;;;;;;;;;;;;;;4959056;28;19933;-76
2023/10/15 01:51:06;;;;;;;;;;;;;;;;;;4958555;28;20008;-76
2023/10/15 01:53:34;;;;;;;;;;;;;;;;;;4958321;28;19922;-76
2023/10/15 01:56:00;;;;;;;;;;;;;;;;;;4958622;28;19972;-76
2023/10/15 01:58:32;;;;;;;;;;;;;;;;;;4960045;28;19922;-74
2023/10/15 02:01:13;;;;;;;;;;;;;;;;;;4960341;28;19922;-76
2023/10/15 02:03:41;;;;;;;;;;;;;;;;;;4959066;28;19922;-76
2023/10/15 02:06:07;;;;;;;;;;;;;;;;;;4958631;28;20000;-76
2023/10/15 02:08:35;;;;;;;;;;;;;;;;;;4957835;28;19983;-77
2023/10/15 02:11:05;;;;;;;;;;;;;;;;;;4958074;28;20261;-77
2023/10/15 02:13:35;;;;;;;;;;;;;;;;;;4959007;28;19926;-76
2023/10/15 02:16:02;;;;;;;;;;;;;;;;;;4958590;28;19977;-76
2023/10/15 02:18:31;;;;;;;;;;;;;;;;;;4958625;28;19922;-76
2023/10/15 02:23:22;;;;;;;;;;;;;;;;;;4957780;28;20286;-75
2023/10/15 02:25:58;;;;;;;;;;;;;;;;;;4958229;28;19930;-76
2023/10/15 02:28:27;;;;;;;;;;;;;;;;;;4958809;28;19989;-76
2023/10/15 02:31:00;;;;;;;;;;;;;;;;;;4958204;28;19929;-77
2023/10/15 02:33:27;;;;;;;;;;;;;;;;;;4958627;28;19925;-77
2023/10/15 02:35:54;;;;;;;;;;;;;;;;;;4958355;28;20367;-79
2023/10/15 02:38:25;;;;;;;;;;;;;;;;;;4957540;28;19973;-77
2023/10/15 02:41:04;;;;;;;;;;;;;;;;;;4958029;28;19930;-79
2023/10/15 02:43:30;;;;;;;;;;;;;;;;;;4958630;28;19922;-76
2023/10/15 02:46:21;;;;;;;;;;;;;;;;;;4958175;28;19922;-76
2023/10/15 02:48:44;;;;;;;;;;;;;;;;;;4957479;28;19922;-76
2023/10/15 02:51:11;;;;;;;;;;;;;;;;;;4957933;28;19976;-76
2023/10/15 02:53:39;;;;;;;;;;;;;;;;;;4957153;28;19929;-77
2023/10/15 02:56:11;;;;;;;;;;;;;;;;;;4957189;28;20398;-76
2023/10/15 02:58:38;;;;;;;;;;;;;;;;;;4958393;28;19922;-76
2023/10/15 03:01:17;;;;;;;;;;;;;;;;;;4957858;28;19922;-76
2023/10/15 03:03:48;;;;;;;;;;;;;;;;;;4958120;28;19986;-76
2023/10/15 03:06:18;;;;;;;;;;;;;;;;;;4957498;28;19922;-77
2023/10/15 03:08:45;;;;;;;;;;;;;;;;;;4956830;28;19929;-76
2023/10/15 03:11:18;;;;;;;;;;;;;;;;;;4956993;28;19926;-76
2023/10/15 03:16:43;;;;;;;;;;;;;;;;;;4955732;28;20380;-77
2023/10/15 03:19:17;;;;;;;;;;;;;;;;;;4957451;28;19926;-76
2023/10/15 03:21:43;;;;;;;;;;;;;;;;;;4957248;28;20012;-76
2023/10/15 03:24:09;;;;;;;;;;;;;;;;;;4956618;28;20012;-76
2023/10/15 03:26:36;;;;;;;;;;;;;;;;;;4957261;28;19922;-77
2023/10/15 03:29:13;;;;;;;;;;;;;;;;;;4957313;28;19926;-76
2023/10/15 03:31:45;;;;;;;;;;;;;;;;;;4957649;28;20529;-76
2023/10/15 03:37:13;;;;;;;;;;;;;;;;;;4956376;28;19922;-76
2023/10/15 03:44:49;;;;;;;;;;;;;;;;;;4957498;28;19929;-76
2023/10/15 03:47:15;;;;;;;;;;;;;;;;;;4956510;28;19922;-77
2023/10/15 03:49:44;;;;;;;;;;;;;;;;;;4957264;28;19926;-76
2023/10/15 03:52:14;;;;;;;;;;;;;;;;;;4956251;28;19922;-76
2023/10/15 03:54:40;;;;;;;;;;;;;;;;;;4956389;28;19928;-77
2023/10/15 03:57:06;;;;;;;;;;;;;;;;;;4956859;28;19922;-76
2023/10/15 03:59:41;;;;;;;;;;;;;;;;;;4956571;28;19922;-76
2023/10/15 04:02:11;;;;;;;;;;;;;;;;;;4956601;28;19922;-76
2023/10/15 04:04:37;;;;;;;;;;;;;;;;;;4956983;28;19922;-78
2023/10/15 04:07:18;;;;;;;;;;;;;;;;;;4955808;28;19926;-77
2023/10/15 04:09:44;;;;;;;;;;;;;;;;;;4956191;28;20391;-76
2023/10/15 04:12:10;;;;;;;;;;;;;;;;;;4956423;28;19926;-76
2023/10/15 04:14:37;;;;;;;;;;;;;;;;;;4956894;28;19968;-76
2023/10/15 04:17:06;;;;;;;;;;;;;;;;;;4956115;28;20364;-79
2023/10/15 04:19:33;;;;;;;;;;;;;;;;;;4956791;28;19922;-77
2023/10/15 04:22:00;;;;;;;;;;;;;;;;;;4955927;28;19922;-76
2023/10/15 04:24:59;;;;;;;;;;;;;;;;;;4955724;28;19929;-76
2023/10/15 04:27:22;;;;;;;;;;;;;;;;;;4954103;28;19922;-76
2023/10/15 04:29:54;;;;;;;;;;;;;;;;;;4956923;28;19930;-76
2023/10/15 04:32:28;;;;;;;;;;;;;;;;;;4956142;28;20012;-76
2023/10/15 04:34:56;;;;;;;;;;;;;;;;;;4956495;28;19922;-76
2023/10/15 04:37:23;;;;;;;;;;;;;;;;;;4955146;28;19922;-76
2023/10/15 04:39:53;;;;;;;;;;;;;;;;;;4955382;28;19922;-76
2023/10/15 04:42:29;;;;;;;;;;;;;;;;;;4956225;28;20012;-76
2023/10/15 04:44:54;;;;;;;;;;;;;;;;;;4956441;28;19922;-76
2023/10/15 04:47:41;;;;;;;;;;;;;;;;;;4955716;28;20466;-76
2023/10/15 04:50:16;;;;;;;;;;;;;;;;;;4955790;28;20287;-76
2023/10/15 04:52:42;;;;;;;;;;;;;;;;;;4955914;28;19922;-76
2023/10/15 04:55:08;;;;;;;;;;;;;;;;;;4955065;28;19922;-76
2023/10/15 04:57:34;;;;;;;;;;;;;;;;;;4956453;28;19973;-76
2023/10/15 05:00:00;;;;;;;;;;;;;;;;;;4956304;28;19929;-76
2023/10/15 05:02:26;;;;;;;;;;;;;;;;;;4970436;28;19918;-76
2023/10/15 05:04:52;;;;;;;;;;;;;;;;;;4972453;28;19922;-76
2023/10/15 05:07:18;;;;;;;;;;;;;;;;;;4971255;28;19922;-77
2023/10/15 05:09:44;;;;;;;;;;;;;;;;;;4971491;28;19928;-77
2023/10/15 05:12:10;;;;;;;;;;;;;;;;;;4973997;28;20339;-77
2023/10/15 05:14:36;;;;;;;;;;;;;;;;;;4976163;28;19922;-76
2023/10/15 05:17:02;;;;;;;;;;;;;;;;;;4960054;28;20012;-77
2023/10/15 05:19:28;;;;;;;;;;;;;;;;;;4975615;28;19929;-76
2023/10/15 05:21:56;;;;;;;;;;;;;;;;;;4975555;28;19972;-76
2023/10/15 05:24:22;;;;;;;;;;;;;;;;;;4974759;28;20360;-76
2023/10/15 05:26:47;;;;;;;;;;;;;;;;;;4975555;28;19922;-76
2023/10/15 05:29:13;;;;;;;;;;;;;;;;;;4975596;28;19922;-75
2023/10/15 05:31:40;;;;;;;;;;;;;;;;;;4975902;28;20347;-76
2023/10/15 05:34:07;;;;;;;;;;;;;;;;;;4959947;28;19984;-76
2023/10/15 05:36:33;;;;;;;;;;;;;;;;;;4974483;28;19932;-75
2023/10/15 05:38:59;;;;;;;;;;;;;;;;;;4975365;28;19928;-76
2023/10/15 05:41:27;;;;;;;;;;;;;;;;;;4974740;28;19921;-76
2023/10/15 05:43:53;;;;;;;;;;;;;;;;;;4975781;28;19922;-75
2023/10/15 05:46:19;;;;;;;;;;;;;;;;;;4975033;28;19926;-77
2023/10/15 05:48:45;;;;;;;;;;;;;;;;;;4975451;28;19922;-76
2023/10/15 05:51:11;;;;;;;;;;;;;;;;;;4975279;28;19926;-77
2023/10/15 05:53:37;;;;;;;;;;;;;;;;;;4958238;28;19922;-76
2023/10/15 05:56:03;;;;;;;;;;;;;;;;;;4975199;28;19968;-75
2023/10/15 05:58:29;;;;;;;;;;;;;;;;;;4959017;28;19922;-76
2023/10/15 06:00:55;;;;;;;;;;;;;;;;;;4975359;28;19922;-75
2023/10/15 06:03:21;;;;;;;;;;;;;;;;;;4974594;28;19926;-75
2023/10/15 06:05:47;;;;;;;;;;;;;;;;;;4959202;28;19972;-75
2023/10/15 06:08:16;;;;;;;;;;;;;;;;;;4974753;28;19968;-76
2023/10/15 06:10:44;;;;;;;;;;;;;;;;;;4958613;28;19965;-76
2023/10/15 06:13:10;;;;;;;;;;;;;;;;;;4958927;28;19981;-76
2023/10/15 06:15:37;;;;;;;;;;;;;;;;;;4974697;28;19929;-76
2023/10/15 06:18:03;;;;;;;;;;;;;;;;;;4974998;28;19922;-76
2023/10/15 06:20:29;;;;;;;;;;;;;;;;;;4974664;28;19929;-75
2023/10/15 06:22:55;;;;;;;;;;;;;;;;;;4957791;28;20352;-76
2023/10/15 06:25:21;;;;;;;;;;;;;;;;;;4973430;28;19973;-76
2023/10/15 06:27:47;;;;;;;;;;;;;;;;;;4974769;28;20000;-76
2023/10/15 06:30:16;;;;;;;;;;;;;;;;;;4958934;28;19925;-77
2023/10/15 06:32:43;;;;;;;;;;;;;;;;;;4958744;28;20418;-77
2023/10/15 06:35:09;;;;;;;;;;;;;;;;;;4974736;28;20378;-76
2023/10/15 06:37:38;;;;;;;;;;;;;;;;;;4973435;28;19918;-76
2023/10/15 06:40:04;;;;;;;;;;;;;;;;;;4973905;28;19922;-76
2023/10/15 06:42:30;;;;;;;;;;;;;;;;;;4958049;28;19922;-76
2023/10/15 06:44:56;;;;;;;;;;;;;;;;;;4974875;28;20024;-76
2023/10/15 06:47:22;;;;;;;;;;;;;;;;;;4973895;28;19939;-76
2023/10/15 06:49:48;;;;;;;;;;;;;;;;;;4974544;28;20385;-76
2023/10/15 06:52:14;;;;;;;;;;;;;;;;;;4957662;28;19992;-76
2023/10/15 06:54:40;;;;;;;;;;;;;;;;;;4957378;28;19926;-77
2023/10/15 06:57:07;;;;;;;;;;;;;;;;;;4958383;28;19961;-76
2023/10/15 06:59:33;;;;;;;;;;;;;;;;;;4974023;28;19989;-76
2023/10/15 07:01:59;;;;;;;;;;;;;;;;;;4958064;28;20253;-76
2023/10/15 07:04:27;;;;;;;;;;;;;;;;;;4973831;28;19922;-77
2023/10/15 07:06:53;;;;;;;;;;;;;;;;;;4973497;28;19922;-76
2023/10/15 07:09:19;;;;;;;;;;;;;;;;;;4973209;28;19922;-77
2023/10/15 07:11:45;;;;;;;;;;;;;;;;;;4973665;28;19925;-76
2023/10/15 07:14:11;;;;;;;;;;;;;;;;;;4974091;28;19972;-76
2023/10/15 07:16:40;;;;;;;;;;;;;;;;;;4957403;28;20311;-77
2023/10/15 07:19:06;;;;;;;;;;;;;;;;;;4957919;28;19929;-76
2023/10/15 07:21:32;;;;;;;;;;;;;;;;;;4972697;28;19926;-76
2023/10/15 07:23:58;;;;;;;;;;;;;;;;;;4957323;28;19977;-76
2023/10/15 07:26:24;;;;;;;;;;;;;;;;;;4956815;28;19922;-76
2023/10/15 07:28:50;;;;;;;;;;;;;;;;;;4973716;28;20426;-76
2023/10/15 07:31:16;;;;;;;;;;;;;;;;;;4973893;28;20323;-77
2023/10/15 07:33:44;;;;;;;;;;;;;;;;;;4972108;28;20274;-76
2023/10/15 07:36:10;;;;;;;;;;;;;;;;;;4973330;28;19989;-76
2023/10/15 07:38:37;;;;;;;;;;;;;;;;;;4972262;28;19968;-76
2023/10/15 07:41:05;;;;;;;;;;;6.50;99.90;;;;;;4973209;28;20687;-76
2023/10/15 07:43:31;;;;;;;;;;;6.30;99.90;;;;;;4957181;28;20291;-76
2023/10/15 07:45:57;;;;;;;;;;;6.30;99.90;;;;;;4957347;28;20001;-76
2023/10/15 07:48:23;;;;;;;;;;;6.30;99.90;;;;;;4956427;28;19929;-77
2023/10/15 07:50:48;;;;;;;;;;;6.30;99.90;;;;;;4957191;28;19937;-76
2023/10/15 07:53:14;;;;;;;;;;;6.40;99.90;;;;;;4939743;28;19980;-76
2023/10/15 07:55:39;;;;;;;;;;;6.50;99.90;;;;;;4956288;28;19977;-76
2023/10/15 07:58:05;;;;;;;;;;;6.50;99.90;;;;;;4941406;28;19929;-76
2023/10/15 08:00:33;;;;;;;;;;;6.60;99.90;;;;;;4940626;28;19980;-76
2023/10/15 08:02:59;;;;;;;;;;;6.80;99.90;;;;;;4956791;28;19929;-76
2023/10/15 08:05:25;;;;;;;;;;;6.70;99.90;;;;;;4956713;28;19922;-77
2023/10/15 08:07:51;;;;;;;;;;;6.70;99.90;;;;;;4956317;28;19926;-77
2023/10/15 08:10:24;;;;;;;;;;;6.70;99.90;;;;;;4956107;28;19951;-76
2023/10/15 08:12:50;;;;;;;;;;;6.90;99.90;;;;;;4956794;28;20359;-76
2023/10/15 08:15:16;;;;;;;;;;;6.90;99.90;;;;;;4941021;28;19977;-76
2023/10/15 08:17:42;;;;;;;;;;;6.90;99.90;;;;;;4939889;28;19922;-77
2023/10/15 08:20:09;;;;;;;;;;;6.90;99.90;;;;;;4941000;28;19976;-76
2023/10/15 08:22:35;;;;;;;;;;;6.90;99.90;;;;;;4940157;28;19922;-76
2023/10/15 08:25:01;;;;;;;;;;;6.90;99.90;;;;;;4939530;28;19981;-76
2023/10/15 08:27:26;;;;;;;;;;;6.80;99.90;;;;;;4940163;28;19922;-78
2023/10/15 08:29:52;;;;;;;;;;;6.90;99.90;;;;;;4956770;28;19969;-76
2023/10/15 08:32:17;;;;;;;;;;;6.90;99.90;;;;;;4940464;28;19969;-76
2023/10/15 08:34:44;;;;;;;;;;;6.90;99.90;;;;;;4956110;28;19961;-76
2023/10/15 08:37:10;;;;;;;;;;;6.90;99.90;;;;;;4955757;28;20451;-76
2023/10/15 08:39:38;;;;;;;;;;;6.90;99.90;;;;;;4955835;28;20283;-76
2023/10/15 08:42:06;;;;;;;;;;;6.80;99.90;;;;;;4971864;28;19922;-76
2023/10/15 08:44:33;;;;;;;;;;;6.80;99.90;;;;;;4939952;28;19922;-76
2023/10/15 08:47:04;;;;;;;;;;;6.80;99.90;;;;;;4955791;28;20394;-76
2023/10/15 08:49:32;;;;;;;;;;;6.80;99.90;;;;;;4956099;28;19977;-77
2023/10/15 08:51:58;;;;;;;;;;;6.90;99.90;;;;;;4955623;28;19972;-77
2023/10/15 08:54:25;;;;;;;;;;;6.90;99.90;;;;;;4956195;28;19922;-76
2023/10/15 08:56:54;;;;;;;;;;;6.90;99.90;;;;;;4955581;28;19926;-76
2023/10/15 08:59:23;;;;;;;;;;;7.00;99.90;;;;;;4956657;28;20064;-76
2023/10/15 09:01:53;;;;;;;;;;;7.10;99.90;;;;;;4955867;28;20013;-76
2023/10/15 09:04:18;;;;;;;;;;;7.10;99.90;;;;;;4956527;28;19929;-76
2023/10/15 09:06:47;;;;;;;;;;;7.20;99.90;;;;;;4939215;28;19922;-77
2023/10/15 09:09:13;;;;;;;;;;;7.30;99.90;;;;;;4955451;28;20059;-76
2023/10/15 09:11:42;;;;;;;;;;;7.50;99.90;;;;;;4955343;28;20380;-76
2023/10/15 09:14:13;;;;;;;;;;;7.60;99.90;;;;;;4940758;28;19922;-77
2023/10/15 09:16:48;;;;;;;;;;;7.60;99.90;;;;;;4955571;28;19929;-76
2023/10/15 09:19:14;;;;;;;;;;;7.70;99.90;;;;;;4956332;28;19929;-76
2023/10/15 09:21:40;;;;;;;;;;;7.80;99.90;;;;;;4955037;28;19921;-77
2023/10/15 09:24:06;;;;;;;;;;;7.90;99.90;;;;;;4955629;28;19973;-77
2023/10/15 09:26:31;;;;;;;;;;;;;;;;;;4923497;28;19981;-79
2023/10/15 09:28:57;;;;;;;;;;;8.00;99.90;;;;;;4971818;28;20028;-76
2023/10/15 09:31:25;;;;;;;;;;;8.10;99.90;;;;;;4955900;28;20411;-77
2023/10/15 09:33:51;;;;;;;;;;;8.20;99.90;;;;;;4955722;28;19928;-76
2023/10/15 09:36:17;;;;;;;;;;;8.30;99.90;;;;;;4955491;28;19955;-77
2023/10/15 09:38:43;;;;;;;;;;;8.30;99.90;;;;;;4954238;28;20331;-76
2023/10/15 09:41:10;;;;;;;;;;;8.30;99.90;;;;;;4955611;28;19930;-76
2023/10/15 09:43:35;;;;;;;;;;;8.30;99.90;;;;;;4955562;28;19922;-77
2023/10/15 09:46:05;;;;;;;;;;;8.20;99.90;;;;;;4955926;28;19989;-77
2023/10/15 09:48:36;;;;;;;;;;;8.20;99.90;;;;;;4955312;28;19932;-77
2023/10/15 09:51:04;;;;;;;;;;;8.20;99.90;;;;;;4955850;28;19977;-77
2023/10/15 09:53:33;;;;;;;;;;;8.30;99.90;;;;;;4939041;28;19992;-76
2023/10/15 09:56:03;;;;;;;;;;;8.40;99.90;;;;;;4954969;28;19992;-76
2023/10/15 09:58:29;;;;;;;;;;;8.60;99.90;;;;;;4974750;28;19945;-76
2023/10/15 10:01:07;;;;;;;;;;;8.60;99.90;;;;;;4958861;28;20680;-77
2023/10/15 10:03:47;;;;;;;;;;;8.70;99.90;;;;;;4959208;28;19922;-77
2023/10/15 10:06:30;;;;;;;;;;;8.80;99.90;;;;;;4959220;28;19993;-77
2023/10/15 10:09:21;;;;;;;;;;;8.90;99.90;;;;;;4957907;28;20032;-77
2023/10/15 10:11:56;;;;;;;;;;;9.10;99.90;;;;;;4958317;28;19929;-76
2023/10/15 10:14:29;;;;;;;;;;;9.30;99.90;;;;;;4959376;28;19926;-77
2023/10/15 10:16:55;;;;;;;;;;;;;;;;;;4958630;28;20267;-77
2023/10/15 10:19:21;;;;;;;;;;;;;;;;;;4959150;28;19926;-77
2023/10/15 10:21:47;;;;;;;;;;;;;;;;;;4957925;28;19922;-77
2023/10/15 10:24:14;;;;;;;;;;;;;;;;;;4974693;28;19922;-76
2023/10/15 10:26:40;;;;;;;;;;;;;;;;;;4974146;28;19922;-79
2023/10/15 10:29:06;;;;;;;;;;;;;;;;;;4974916;28;19976;-76
2023/10/15 10:31:34;;;;;;;;;;;;;;;;;;4975004;28;20315;-77
2023/10/15 10:34:03;;;;;;;;;;;;;;;;;;4958366;28;19976;-77
2023/10/15 10:36:30;;;;;;;;;;;;;;;;;;4974080;28;19923;-77
2023/10/15 10:39:00;;;;;;;;;;;;;;;;;;4973792;28;19922;-77
2023/10/15 10:41:26;;;;;;;;;;;;;;;;;;4974500;28;20368;-77
2023/10/15 10:43:52;;;;;;;;;;;;;;;;;;4958211;28;19922;-77
2023/10/15 10:46:18;;;;;;;;;;;;;;;;;;4958629;28;19961;-77
2023/10/15 10:48:44;;;;;;;;;;;;;;;;;;4973803;28;20363;-77
2023/10/15 10:51:21;;;;;;;;;;;;;;;;;;4974387;28;19950;-77
2023/10/15 10:53:48;;;;;;;;;;;;;;;;;;4957151;28;19922;-76
2023/10/15 10:56:16;;;;;;;;;;;;;;;;;;4974342;28;19973;-76
2023/10/15 10:58:42;;;;;;;;;;;;;;;;;;4958180;28;20388;-78
2023/10/15 11:01:09;;;;;;;;;;;;;;;;;;4974523;28;19930;-76
2023/10/15 11:03:35;;;;;;;;;;;;;;;;;;4973885;28;20363;-76
2023/10/15 11:06:01;;;;;;;;;;;;;;;;;;4957833;28;19940;-76
2023/10/15 11:08:27;;;;;;;;;;;;;;;;;;4956583;28;20398;-76
2023/10/15 11:10:53;;;;;;;;;;;;;;;;;;4973492;28;19969;-76
2023/10/15 11:13:19;;;;;;;;;;;;;;;;;;4958107;28;20284;-76
2023/10/15 11:15:45;;;;;;;;;;;;;;;;;;4957716;28;20020;-76
2023/10/15 11:18:11;;;;;;;;;;;;;;;;;;4957564;28;19973;-76
2023/10/15 11:20:37;;;;;;;;;;;;;;;;;;4958050;28;19972;-76
2023/10/15 11:23:05;;;;;;;;;;;;;;;;;;4972581;28;19921;-77
2023/10/15 11:25:34;;;;;;;;;;;;;;;;;;4957559;28;19973;-77
2023/10/15 11:28:00;;;;;;;;;;;;;;;;;;4973330;28;19922;-77
2023/10/15 11:30:26;;;;;;;;;;;;;;;;;;4974011;28;20366;-77
2023/10/15 11:32:52;;;;;;;;;;;;;;;;;;4973035;28;20281;-77
2023/10/15 11:35:19;;;;;;;;;;;;;;;;;;4957599;28;19980;-77
2023/10/15 11:37:50;;;;;;;;;;;;;;;;;;4942803;29;19977;-79
2023/10/15 11:40:17;;;;;;;;;;;;;;;;;;4934598;29;20280;-78
2023/10/15 11:42:43;;;;;;;;;;;;;;;;;;4935293;29;19978;-78
2023/10/15 11:45:16;;;;;;;;;;;;;;;;;;4934977;29;19923;-78
2023/10/15 11:47:44;;;;;;;;;;;;;;;;;;4934963;29;20395;-78
2023/10/15 11:50:12;;;;;;;;;;;;;;;;;;4934802;29;19927;-77
2023/10/15 11:52:37;;;;;;;;;;;;;;;;;;4934474;29;19953;-78
2023/10/15 11:55:06;;;;;;;;;;;;;;;;;;4933625;29;19927;-78
2023/10/15 11:57:35;;;;;;;;;;;;;;;;;;4935118;29;20016;-78
2023/10/15 12:00:01;;;;;;;;;;;;;;;;;;4934480;29;19926;-78
2023/10/15 12:02:28;;;;;;;;;;;;;;;;;;4934845;29;20409;-78
2023/10/15 12:04:56;;;;;;;;;;;;;;;;;;4934267;29;19929;-78
2023/10/15 12:07:22;;;;;;;;;;;;;;;;;;4934212;29;19933;-78
2023/10/15 12:09:49;;;;;;;;;;;;;;;;;;4933434;29;19923;-79
2023/10/15 12:12:15;;;;;;;;;;;;;;;;;;4934827;29;19923;-78
2023/10/15 12:14:41;;;;;;;;;;;;;;;;;;4934830;29;19990;-80
2023/10/15 12:17:07;;;;;;;;;;;;;;;;;;4934077;29;20022;-79
2023/10/15 12:19:33;;;;;;;;;;;;;;;;;;4934464;29;19922;-78
2023/10/15 12:21:58;;;;;;;;;;;;;;;;;;4933143;29;19953;-79
2023/10/15 12:24:25;;;;;;;;;;;;;;;;;;4934092;29;20360;-79
2023/10/15 12:26:51;;;;;;;;;;;;;;;;;;4933603;29;19923;-79
2023/10/15 12:29:17;;;;;;;;;;;;;;;;;;4934334;29;19974;-79
2023/10/15 12:31:43;;;;;;;;;;;;;;;;;;4934387;29;20029;-79
2023/10/15 12:34:09;;;;;;;;;;;;;;;;;;4933695;29;19969;-79
2023/10/15 12:36:36;;;;;;;;;;;;;;;;;;4935703;28;19965;-79
2023/10/15 12:39:02;;;;;;;;;;;;;;;;;;4955931;28;20411;-79
2023/10/15 12:41:28;;;;;;;;;;;;;;;;;;4972379;28;20025;-79
2023/10/15 12:43:58;;;;;;;;;;;;;;;;;;4972404;28;20434;-79
2023/10/15 12:46:24;;;;;;;;;;;;;;;;;;4956459;28;19922;-80
2023/10/15 12:48:52;;;;;;;;;;;;;;;;;;4972165;28;19922;-80
2023/10/15 12:51:18;;;;;;;;;;;;;;;;;;4972185;28;20641;-79
2023/10/15 12:53:44;;;;;;;;;;;;;;;;;;4955951;28;19922;-79
2023/10/15 12:56:10;;;;;;;;;;;;;;;;;;4955414;28;19926;-79
2023/10/15 12:58:36;;;;;;;;;;;;;;;;;;4956683;28;20013;-79
2023/10/15 13:01:02;;;;;;;;;;;;;;;;;;4956100;28;20020;-80
2023/10/15 13:03:28;;;;;;;;;;;;;;;;;;4956356;28;19922;-79
2023/10/15 13:05:54;;;;;;;;;;;;;;;;;;4958032;28;19941;-80
2023/10/15 13:08:20;;;;;;;;;;;;;;;;;;4974129;28;19922;-79
2023/10/15 13:10:46;;;;;;;;;;;;;;;;;;4974991;28;19922;-79
2023/10/15 13:13:12;;;;;;;;;;;;;;;;;;4975178;28;19925;-79
2023/10/15 13:15:38;;;;;;;;;;;;;;;;;;4975802;28;20283;-80
2023/10/15 13:18:04;;;;;;;;;;;;;;;;;;4974951;28;19922;-79
2023/10/15 13:20:31;;;;;;;;;;;;;;;;;;4975330;28;19921;-80
2023/10/15 13:22:57;;;;;;;;;;;;;;;;;;4974518;28;19926;-79
2023/10/15 13:25:23;;;;;;;;;;;;;;;;;;4974710;28;19928;-78
2023/10/15 13:27:49;;;;;;;;;;;;;;;;;;4975252;28;19926;-78
2023/10/15 13:30:15;;;;;;;;;;;;;;;;;;4975137;28;19933;-78
2023/10/15 13:32:41;;;;;;;;;;;;;;;;;;4976416;28;20294;-78
2023/10/15 13:35:07;;;;;;;;;;;;;;;;;;4978673;28;20012;-79
2023/10/15 13:37:33;;;;;;;;;;;;;;;;;;4978275;28;19922;-78
2023/10/15 13:40:00;;;;;;;;;;;;;;;;;;4977858;28;19933;-78
2023/10/15 13:42:25;;;;;;;;;;;;;;;;;;4979101;28;19937;-78
2023/10/15 13:44:51;;;;;;;;;;;;;;;;;;4979243;28;19925;-78
2023/10/15 13:47:18;;;;;;;;;;;;;;;;;;4978282;28;20028;-77
2023/10/15 13:49:44;;;;;;;;;;;;;;;;;;4978898;28;19921;-78
2023/10/15 13:52:10;;;;;;;;;;;;;;;;;;4977746;28;19993;-77
2023/10/15 13:54:36;;;;;;;;;;;;;;;;;;4978550;28;20347;-78
2023/10/15 13:57:02;;;;;;;;;;;;;;;;;;4978042;28;19932;-78
2023/10/15 13:59:29;;;;;;;;;;;;;;;;;;4978947;28;19996;-78
2023/10/15 14:01:58;;;;;;;;;;;;;;;;;;4978655;28;19965;-78
2023/10/15 14:04:24;;;;;;;;;;;;;;;;;;4978812;28;20378;-78
2023/10/15 14:06:50;;;;;;;;;;;;;;;;;;4978010;28;19921;-78
2023/10/15 14:09:16;;;;;;;;;;;;;;;;;;4977168;28;20072;-78
2023/10/15 14:11:42;;;;;;;;;;;;;;;;;;4978204;28;19980;-78
2023/10/15 14:14:08;;;;;;;;;;;;;;;;;;4978136;28;19977;-77
2023/10/15 14:16:34;;;;;;;;;;;;;;;;;;4978472;28;19925;-78
2023/10/15 14:19:00;;;;;;;;;;;;;;;;;;4977789;28;19925;-78
2023/10/15 14:21:27;;;;;;;;;;;;;;;;;;4977682;28;19921;-78
2023/10/15 14:23:53;;;;;;;;;;;;;;;;;;4994269;28;19922;-77
2023/10/15 14:26:20;;;;;;;;;;;;;;;;;;4977478;28;20140;-77
2023/10/15 14:28:46;;;;;;;;;;;;;;;;;;4978103;28;19956;-77
2023/10/15 14:31:12;;;;;;;;;;;;;;;;;;4977827;28;20399;-77
2023/10/15 14:33:38;;;;;;;;;;;;;;;;;;4978036;28;20344;-78
2023/10/15 14:36:06;;;;;;;;;;;;;;;;;;4977663;28;20283;-78
2023/10/15 14:38:32;;;;;;;;;;;;;;;;;;4976473;28;19956;-77
2023/10/15 14:40:58;;;;;;;;;;;;;;;;;;4977677;28;20323;-78
2023/10/15 14:43:24;;;;;;;;;;;;;;;;;;4977289;28;20041;-77
2023/10/15 14:45:50;;;;;;;;;;;;;;;;;;4978097;28;19928;-77
2023/10/15 14:48:17;;;;;;;;;;;;;;;;;;4976795;28;19921;-78
2023/10/15 14:50:44;;;;;;;;;;;;;;;;;;4977920;28;20076;-78
2023/10/15 14:53:10;;;;;;;;;;;;;;;;;;4976346;28;20338;-78
2023/10/15 14:55:36;;;;;;;;;;;;;;;;;;4977453;28;19928;-78
2023/10/15 14:58:02;;;;;;;;;;;;;;;;;;4977673;28;20028;-79
2023/10/15 15:00:28;;;;;;;;;;;;;;;;;;4977711;28;19925;-78
2023/10/15 15:02:54;;;;;;;;;;;;;;;;;;4977351;28;19995;-77
2023/10/15 15:05:19;;;;;;;;;;;;;;;;;;4977028;28;19921;-78
2023/10/15 15:07:46;;;;;;;;;;;;;;;;;;4976994;28;19929;-77
2023/10/15 15:10:12;;;;;;;;;;;;;;;;;;4976190;28;19954;-77
2023/10/15 15:12:38;;;;;;;;;;;;;;;;;;4977602;28;20378;-77
2023/10/15 15:15:06;;;;;;;;;;;;;;;;;;4977094;28;19934;-80
2023/10/15 15:17:34;;;;;;;;;;;;;;;;;;4977082;28;19965;-78
2023/10/15 15:20:00;;;;;;;;;;;;;;;;;;4977253;28;20381;-77
2023/10/15 15:22:26;;;;;;;;;;;;;;;;;;4976180;28;19928;-78
2023/10/15 15:24:53;;;;;;;;;;;;;;;;;;4976452;28;19921;-78
2023/10/15 15:27:20;;;;;;;;;;;;;;;;;;4976708;28;19922;-78
2023/10/15 15:29:46;;;;;;;;;;;;;;;;;;4977218;28;19922;-77
2023/10/15 15:32:12;;;;;;;;;;;;;;;;;;4976498;28;20059;-77
2023/10/15 15:34:38;;;;;;;;;;;;;;;;;;4976956;28;19968;-78
2023/10/15 15:37:05;;;;;;;;;;;;;;;;;;4975590;28;19928;-80
2023/10/15 15:39:31;;;;;;;;;;;;;;;;;;4976778;28;19941;-78
2023/10/15 15:41:57;;;;;;;;;;;;;;;;;;4976582;28;19921;-77
2023/10/15 15:44:23;;;;;;;;;;;;;;;;;;4976456;28;19921;-77
2023/10/15 15:46:50;;;;;;;;;;;;;;;;;;4976420;28;19922;-77
2023/10/15 15:49:16;;;;;;;;;;;;;;;;;;4975963;28;19922;-78
2023/10/15 15:51:41;;;;;;;;;;;;;;;;;;4976031;28;19956;-77
2023/10/15 15:54:07;;;;;;;;;;;;;;;;;;4975885;28;20310;-78
2023/10/15 15:56:33;;;;;;;;;;;;;;;;;;4975658;28;19973;-78
2023/10/15 15:59:01;;;;;;;;;;;;;;;;;;4976778;28;19983;-77
2023/10/15 16:01:27;;;;;;;;;;;;;;;;;;4975974;28;20000;-78
2023/10/15 16:03:56;;;;;;;;;;;;;;;;;;4976673;28;19968;-78
2023/10/15 16:06:22;;;;;;;;;;;;;;;;;;4975530;28;20283;-77
2023/10/15 16:08:48;;;;;;;;;;;;;;;;;;4975828;28;19968;-77
2023/10/15 16:11:15;;;;;;;;;;;;;;;;;;4975604;28;19925;-77
2023/10/15 16:13:41;;;;;;;;;;;;;;;;;;4976533;28;19922;-77
2023/10/15 16:16:08;;;;;;;;;;;;;;;;;;4976292;28;20426;-79
2023/10/15 16:18:34;;;;;;;;;;;;;;;;;;4975879;28;20008;-77
2023/10/15 16:21:00;;;;;;;;;;;;;;;;;;4974843;28;20012;-78
2023/10/15 16:23:26;;;;;;;;;;;;;;;;;;4963091;28;19926;-77
2023/10/15 16:25:52;;;;;;;;;;;;;;;;;;4955829;28;19925;-77
2023/10/15 16:28:18;;;;;;;;;;;;;;;;;;4972147;28;19933;-77
2023/10/15 16:30:44;;;;;;;;;;;;;;;;;;4956967;28;19922;-77
2023/10/15 16:33:10;;;;;;;;;;;;;;;;;;4972242;28;20359;-80
2023/10/15 16:35:36;;;;;;;;;;;;;;;;;;4972903;28;20283;-76
2023/10/15 16:38:02;;;;;;;;;;;;;;;;;;4971914;28;19925;-78
2023/10/15 16:40:28;;;;;;;;;;;;;;;;;;4955450;28;20087;-77
2023/10/15 16:42:55;;;;;;;;;;;;;;;;;;4956734;28;19930;-77